createdAt,value
2019-02-08T00:02:18.968Z,93.30
2019-02-08T00:04:48.755Z,93.30
2019-02-08T00:07:18.555Z,93.20
2019-02-08T00:09:48.305Z,93.20
2019-02-08T00:12:19.760Z,93.20
2019-02-08T00:14:49.674Z,93.00
2019-02-08T00:17:19.418Z,92.90
2019-02-08T00:19:49.187Z,93.00
2019-02-08T00:22:18.953Z,93.10
2019-02-08T00:24:48.713Z,93.10
2019-02-08T00:27:18.466Z,93.40
2019-02-08T00:29:48.233Z,93.50
2019-02-08T00:32:17.980Z,93.50
2019-02-08T00:34:47.757Z,93.70
2019-02-08T00:37:17.513Z,93.50
2019-02-08T00:39:47.309Z,93.30
2019-02-08T00:42:18.185Z,93.20
2019-02-08T00:44:48.052Z,93.00
2019-02-08T00:47:17.885Z,93.30
2019-02-08T00:49:47.624Z,93.30
2019-02-08T00:52:17.375Z,93.60
2019-02-08T00:54:47.077Z,93.60
2019-02-08T00:57:16.780Z,93.70
2019-02-08T00:59:47.610Z,93.50
2019-02-08T01:02:17.367Z,93.30
2019-02-08T01:04:47.150Z,93.40
2019-02-08T01:07:16.982Z,93.50
2019-02-08T01:09:46.664Z,93.60
2019-02-08T01:12:16.462Z,93.80
2019-02-08T01:14:46.249Z,93.80
2019-02-08T01:17:15.998Z,93.90
2019-02-08T01:19:45.780Z,93.40
2019-02-08T01:22:15.773Z,93.50
2019-02-08T01:24:45.536Z,93.20
2019-02-08T01:27:15.226Z,93.30
2019-02-08T01:29:44.978Z,93.30
2019-02-08T01:32:14.668Z,93.40
2019-02-08T01:34:44.349Z,93.00
2019-02-08T01:37:14.054Z,92.80
2019-02-08T01:39:43.739Z,92.90
2019-02-08T01:42:13.424Z,92.70
2019-02-08T01:44:44.244Z,92.90
2019-02-08T01:47:13.926Z,93.00
2019-02-08T01:49:43.605Z,93.20
2019-02-08T01:52:13.303Z,92.90
2019-02-08T01:54:42.967Z,93.00
2019-02-08T01:57:12.741Z,92.80
2019-02-08T01:59:42.496Z,92.90
2019-02-08T02:02:12.183Z,93.20
2019-02-08T02:04:41.843Z,93.20
2019-02-08T02:07:11.534Z,93.20
2019-02-08T02:09:41.280Z,93.40
2019-02-08T02:12:10.967Z,93.40
2019-02-08T02:14:40.646Z,93.30
2019-02-08T02:17:10.388Z,93.40
2019-02-08T02:19:40.083Z,93.20
2019-02-08T02:22:09.781Z,93.30
2019-02-08T02:24:39.539Z,93.40
2019-02-08T02:27:09.229Z,93.30
2019-02-08T02:29:38.891Z,93.30
2019-02-08T02:32:08.598Z,93.30
2019-02-08T02:34:38.267Z,93.40
2019-02-08T02:37:07.965Z,93.50
2019-02-08T02:39:37.720Z,93.60
2019-02-08T02:42:07.461Z,93.50
2019-02-08T02:44:37.224Z,93.40
2019-02-08T02:47:06.901Z,93.40
2019-02-08T02:49:36.660Z,93.30
2019-02-08T02:52:06.405Z,93.30
2019-02-08T02:54:36.142Z,93.10
2019-02-08T02:57:05.818Z,93.00
2019-02-08T02:59:35.579Z,92.80
2019-02-08T03:02:05.251Z,92.70
2019-02-08T03:04:35.005Z,92.60
2019-02-08T03:07:04.669Z,92.80
2019-02-08T03:09:34.432Z,92.90
2019-02-08T03:12:04.118Z,93.00
2019-02-08T03:14:33.914Z,92.90
2019-02-08T03:17:03.659Z,92.90
2019-02-08T03:19:33.362Z,92.90
2019-02-08T03:22:03.046Z,93.00
2019-02-08T03:24:32.799Z,93.00
2019-02-08T03:27:02.463Z,93.10
2019-02-08T03:29:32.148Z,93.10
2019-02-08T03:32:01.914Z,93.00
2019-02-08T03:34:31.651Z,93.30
2019-02-08T03:37:01.334Z,93.00
2019-02-08T03:39:31.003Z,93.00
2019-02-08T03:42:00.740Z,93.00
2019-02-08T03:44:31.433Z,92.90
2019-02-08T03:47:01.190Z,93.00
2019-02-08T03:49:30.947Z,92.90
2019-02-08T03:52:00.731Z,93.00
2019-02-08T03:54:31.936Z,93.00
2019-02-08T03:57:01.697Z,93.00
2019-02-08T03:59:31.388Z,93.00
2019-02-08T04:02:01.084Z,92.90
2019-02-08T04:04:30.753Z,92.70
2019-02-08T04:07:00.462Z,92.70
2019-02-08T04:09:30.224Z,92.70
2019-02-08T04:11:59.961Z,92.60
2019-02-08T04:14:29.725Z,92.60
2019-02-08T04:16:59.413Z,92.50
2019-02-08T04:19:29.170Z,92.40
2019-02-08T04:21:58.862Z,92.40
2019-02-08T04:24:30.150Z,92.20
2019-02-08T04:27:00.178Z,92.00
2019-02-08T04:29:29.860Z,92.00
2019-02-08T04:31:59.581Z,91.90
2019-02-08T04:34:29.263Z,91.70
2019-02-08T04:36:58.949Z,91.70
2019-02-08T04:39:28.725Z,91.80
2019-02-08T04:41:58.500Z,91.70
2019-02-08T04:44:28.253Z,91.60
2019-02-08T04:46:57.928Z,91.70
2019-02-08T04:49:27.635Z,91.70
2019-02-08T04:51:57.385Z,91.60
2019-02-08T04:54:27.175Z,91.50
2019-02-08T04:56:56.911Z,91.70
2019-02-08T04:59:26.616Z,91.80
2019-02-08T05:01:56.336Z,92.00
2019-02-08T05:04:25.997Z,91.80
2019-02-08T05:06:55.678Z,91.70
2019-02-08T05:09:25.350Z,91.90
2019-02-08T05:11:55.029Z,91.80
2019-02-08T05:14:24.831Z,91.90
2019-02-08T05:16:54.584Z,92.00
2019-02-08T05:19:24.250Z,92.10
2019-02-08T05:21:54.027Z,92.10
2019-02-08T05:24:23.701Z,91.80
2019-02-08T05:26:54.399Z,91.80
2019-02-08T05:29:24.356Z,91.90
2019-02-08T05:31:54.037Z,91.90
2019-02-08T05:34:28.374Z,92.20
2019-02-08T05:36:58.047Z,92.00
2019-02-08T05:39:27.754Z,92.00
2019-02-08T05:41:57.517Z,92.10
2019-02-08T05:44:27.273Z,91.90
2019-02-08T05:46:57.227Z,91.80
2019-02-08T05:49:26.984Z,91.90
2019-02-08T05:51:56.751Z,91.80
2019-02-08T05:54:26.435Z,91.80
2019-02-08T05:56:56.132Z,91.80
2019-02-08T05:59:25.833Z,91.60
2019-02-08T06:01:55.591Z,91.60
2019-02-08T06:04:25.273Z,91.60
2019-02-08T06:06:55.045Z,91.70
2019-02-08T06:09:24.846Z,91.60
2019-02-08T06:11:54.642Z,91.60
2019-02-08T06:14:24.318Z,91.60
2019-02-08T06:16:54.278Z,91.40
2019-02-08T06:19:23.951Z,91.60
2019-02-08T06:21:53.717Z,91.60
2019-02-08T06:24:23.390Z,91.70
2019-02-08T06:26:53.205Z,91.70
2019-02-08T06:29:22.911Z,91.90
2019-02-08T06:31:52.584Z,91.90
2019-02-08T06:34:22.303Z,91.80
2019-02-08T06:36:52.040Z,91.70
2019-02-08T06:39:21.735Z,91.60
2019-02-08T06:41:51.429Z,91.60
2019-02-08T06:44:21.202Z,91.50
2019-02-08T06:46:52.886Z,91.60
2019-02-08T06:49:22.628Z,91.50
2019-02-08T06:51:52.332Z,91.30
2019-02-08T06:54:22.046Z,91.20
2019-02-08T06:57:08.901Z,91.00
2019-02-08T06:59:40.228Z,91.10
2019-02-08T07:02:16.379Z,91.30
2019-02-08T07:04:47.689Z,91.10
2019-02-08T07:07:28.230Z,91.30
2019-02-08T07:09:59.698Z,91.20
2019-02-08T07:12:33.878Z,91.00
2019-02-08T07:15:06.353Z,90.70
2019-02-08T07:17:37.777Z,90.70
2019-02-08T07:20:11.607Z,90.80
2019-02-08T07:22:43.017Z,91.00
2019-02-08T07:25:23.504Z,91.20
2019-02-08T07:27:58.050Z,91.20
2019-02-08T07:30:53.547Z,91.30
2019-02-08T07:33:30.737Z,91.20
2019-02-08T07:36:03.389Z,90.90
2019-02-08T07:38:34.804Z,90.90
2019-02-08T07:41:23.033Z,90.90
2019-02-08T07:43:55.440Z,90.80
2019-02-08T07:46:32.826Z,90.70
2019-02-08T07:49:09.725Z,90.50
2019-02-08T07:51:43.723Z,90.40
2019-02-08T07:54:15.072Z,90.40
2019-02-08T07:56:52.728Z,90.20
2019-02-08T07:59:39.177Z,90.00
2019-02-08T08:02:25.744Z,90.10
2019-02-08T08:05:02.819Z,89.90
2019-02-08T08:07:34.129Z,89.40
2019-02-08T08:10:10.642Z,89.40
2019-02-08T08:12:45.280Z,89.30
2019-02-08T08:15:17.725Z,88.90
2019-02-08T08:17:49.051Z,88.90
2019-02-08T08:20:22.234Z,87.60
2019-02-08T08:22:53.632Z,86.50
2019-02-08T08:25:40.099Z,83.40
2019-02-08T08:28:23.343Z,80.30
2019-02-08T08:30:54.745Z,77.70
2019-02-08T08:33:30.494Z,76.50
2019-02-08T08:36:26.293Z,74.80
2019-02-08T08:39:18.274Z,71.90
2019-02-08T08:42:09.244Z,69.60
2019-02-08T08:44:51.298Z,67.20
2019-02-08T08:47:31.584Z,63.20
2019-02-08T08:50:21.395Z,62.30
2019-02-08T08:53:07.502Z,59.70
2019-02-08T08:56:01.528Z,60.20
2019-02-08T08:59:01.697Z,57.50
2019-02-08T09:01:58.785Z,57.10
2019-02-08T09:04:43.746Z,59.00
2019-02-08T09:07:22.484Z,62.20
2019-02-08T09:10:16.868Z,66.10
2019-02-08T09:13:04.710Z,68.00
2019-02-08T09:15:58.176Z,70.90
2019-02-08T09:18:47.539Z,72.10
2019-02-08T09:21:35.128Z,69.90
2019-02-08T09:24:16.759Z,61.90
2019-02-08T09:26:55.281Z,57.30
2019-02-08T09:29:59.981Z,54.40
2019-02-08T09:33:07.495Z,50.70
2019-02-08T09:35:40.633Z,47.70
2019-02-08T09:38:19.465Z,45.30
2019-02-08T09:41:07.615Z,42.90
2019-02-08T09:43:52.542Z,43.50
2019-02-08T09:46:47.401Z,43.70
2019-02-08T09:49:45.714Z,42.30
2019-02-08T09:52:18.748Z,40.50
2019-02-08T09:55:26.711Z,38.20
2019-02-08T09:58:20.815Z,36.70
2019-02-08T10:01:05.770Z,36.30
2019-02-08T10:03:53.580Z,35.60
2019-02-08T10:06:32.393Z,35.10
2019-02-08T10:09:39.118Z,35.40
2019-02-08T10:12:27.016Z,34.00
2019-02-08T10:15:00.021Z,33.50
2019-02-08T10:17:58.871Z,33.00
2019-02-08T10:21:07.113Z,32.00
2019-02-08T10:24:01.387Z,31.40
2019-02-08T10:26:51.062Z,30.70
2019-02-08T10:29:52.826Z,32.00
2019-02-08T10:32:52.943Z,32.40
2019-02-08T10:35:40.775Z,31.90
2019-02-08T10:38:42.367Z,33.70
2019-02-08T10:41:39.348Z,34.60
2019-02-08T10:44:12.271Z,32.70
2019-02-08T10:47:04.930Z,32.80
2019-02-08T10:49:57.550Z,33.90
2019-02-08T10:52:59.466Z,33.80
2019-02-08T10:55:49.310Z,33.90
2019-02-08T10:58:31.067Z,33.40
2019-02-08T11:01:41.855Z,34.10
2019-02-08T11:04:36.222Z,35.00
2019-02-08T11:07:44.237Z,36.80
2019-02-08T11:10:32.121Z,39.10
2019-02-08T11:13:21.665Z,42.20
2019-02-08T11:16:06.585Z,44.90
2019-02-08T11:18:56.180Z,46.60
2019-02-08T11:21:25.856Z,49.40
2019-02-08T11:23:55.544Z,50.20
2019-02-08T11:26:25.322Z,51.60
2019-02-08T11:29:08.988Z,53.00
2019-02-08T11:31:38.690Z,53.80
2019-02-08T11:34:08.484Z,54.30
2019-02-08T11:36:38.245Z,54.70
2019-02-08T11:39:12.560Z,55.10
2019-02-08T11:41:42.958Z,55.80
2019-02-08T11:44:12.808Z,55.80
2019-02-08T11:46:42.497Z,56.50
2019-02-08T11:49:12.247Z,56.80
2019-02-08T11:51:42.019Z,57.30
2019-02-08T11:54:11.763Z,57.70
2019-02-08T11:56:41.438Z,57.80
2019-02-08T11:59:12.197Z,57.70
2019-02-08T12:01:42.537Z,58.30
2019-02-08T12:04:12.302Z,58.50
2019-02-08T12:06:42.035Z,58.80
2019-02-08T12:09:13.148Z,59.00
2019-02-08T12:11:44.303Z,59.50
2019-02-08T12:14:14.096Z,59.60
2019-02-08T12:16:43.751Z,59.90
2019-02-08T12:19:14.498Z,60.10
2019-02-08T12:21:44.169Z,60.10
2019-02-08T12:24:13.923Z,60.10
2019-02-08T12:26:43.626Z,59.80
2019-02-08T12:29:13.290Z,60.10
2019-02-08T12:31:43.010Z,60.30
2019-02-08T12:34:12.771Z,60.70
2019-02-08T12:36:42.441Z,60.20
2019-02-08T12:39:13.155Z,60.20
2019-02-08T12:41:42.902Z,60.40
2019-02-08T12:44:12.646Z,60.80
2019-02-08T12:46:42.424Z,60.80
2019-02-08T12:49:12.200Z,60.80
2019-02-08T12:51:41.862Z,61.20
2019-02-08T12:54:11.621Z,61.40
2019-02-08T12:56:45.666Z,61.30
2019-02-08T12:59:12.669Z,61.60
2019-02-08T13:01:42.406Z,61.40
2019-02-08T13:04:12.188Z,61.30
2019-02-08T13:06:41.884Z,61.70
2019-02-08T13:09:11.625Z,61.90
2019-02-08T13:11:41.393Z,62.20
2019-02-08T13:14:11.201Z,62.00
2019-02-08T13:16:40.972Z,61.90
2019-02-08T13:19:10.719Z,62.00
2019-02-08T13:21:40.440Z,62.00
2019-02-08T13:24:10.204Z,62.00
2019-02-08T13:26:39.935Z,61.70
2019-02-08T13:29:09.615Z,61.60
2019-02-08T13:31:39.284Z,62.00
2019-02-08T13:34:08.993Z,62.20
2019-02-08T13:36:39.164Z,61.80
2019-02-08T13:39:08.839Z,61.90
2019-02-08T13:41:39.876Z,62.00
2019-02-08T13:44:09.570Z,62.00
2019-02-08T13:46:39.299Z,62.00
2019-02-08T13:49:09.009Z,62.20
2019-02-08T13:51:38.699Z,62.40
2019-02-08T13:54:08.364Z,62.20
2019-02-08T13:56:38.144Z,63.00
2019-02-08T13:59:07.872Z,62.30
2019-02-08T14:01:37.587Z,62.20
2019-02-08T14:04:07.250Z,62.10
2019-02-08T14:06:37.079Z,62.30
2019-02-08T14:09:07.401Z,62.60
2019-02-08T14:11:38.269Z,62.70
2019-02-08T14:14:07.993Z,62.70
2019-02-08T14:16:37.669Z,62.90
2019-02-08T14:19:07.415Z,63.10
2019-02-08T14:21:37.168Z,62.80
2019-02-08T14:24:06.839Z,63.00
2019-02-08T14:26:36.525Z,63.00
2019-02-08T14:29:19.248Z,63.10
2019-02-08T14:31:48.977Z,63.50
2019-02-08T14:34:18.784Z,63.80
2019-02-08T14:36:48.501Z,64.20
2019-02-08T14:39:18.195Z,64.30
2019-02-08T14:41:47.934Z,64.20
2019-02-08T14:44:17.748Z,64.10
2019-02-08T14:46:47.571Z,64.20
2019-02-08T14:49:17.235Z,64.30
2019-02-08T14:51:46.913Z,64.40
2019-02-08T14:54:16.624Z,64.50
2019-02-08T14:56:46.352Z,64.90
2019-02-08T14:59:16.019Z,65.10
2019-02-08T15:01:45.761Z,64.90
2019-02-08T15:04:34.899Z,64.80
2019-02-08T15:07:04.698Z,64.80
2019-02-08T15:09:34.392Z,65.60
2019-02-08T15:12:04.071Z,65.40
2019-02-08T15:14:33.734Z,65.40
2019-02-08T15:17:03.509Z,65.60
2019-02-08T15:19:33.248Z,65.90
2019-02-08T15:22:02.931Z,66.10
2019-02-08T15:24:32.637Z,66.00
2019-02-08T15:27:02.394Z,66.30
2019-02-08T15:29:32.156Z,66.60
2019-02-08T15:32:01.930Z,66.80
2019-02-08T15:34:31.700Z,67.00
2019-02-08T15:37:01.399Z,67.30
2019-02-08T15:39:31.158Z,67.40
2019-02-08T15:42:00.945Z,67.60
2019-02-08T15:44:30.738Z,67.60
2019-02-08T15:47:00.448Z,68.00
2019-02-08T15:49:31.208Z,68.30
2019-02-08T15:52:00.936Z,68.50
2019-02-08T15:54:30.736Z,68.60
2019-02-08T15:57:00.459Z,68.80
2019-02-08T15:59:30.126Z,69.10
2019-02-08T16:01:59.815Z,69.00
2019-02-08T16:04:29.545Z,69.10
2019-02-08T16:06:59.236Z,69.40
2019-02-08T16:09:28.978Z,69.70
2019-02-08T16:11:58.709Z,69.70
2019-02-08T16:14:28.779Z,69.80
2019-02-08T16:16:58.560Z,70.10
2019-02-08T16:19:28.322Z,69.80
2019-02-08T16:21:58.064Z,70.30
2019-02-08T16:24:27.796Z,70.00
2019-02-08T16:26:57.536Z,70.40
2019-02-08T16:29:27.310Z,70.40
2019-02-08T16:31:56.982Z,70.50
2019-02-08T16:34:26.738Z,71.00
2019-02-08T16:37:03.393Z,71.90
2019-02-08T16:39:27.812Z,71.60
2019-02-08T16:41:57.472Z,71.40
2019-02-08T16:44:27.220Z,71.30
2019-02-08T16:46:56.921Z,71.30
2019-02-08T16:49:26.682Z,71.30
2019-02-08T16:51:56.440Z,71.50
2019-02-08T16:54:26.101Z,72.00
2019-02-08T16:56:55.785Z,72.00
2019-02-08T16:59:25.573Z,72.20
2019-02-08T17:01:55.299Z,72.60
2019-02-08T17:04:25.030Z,72.70
2019-02-08T17:06:54.793Z,72.60
2019-02-08T17:09:24.552Z,72.90
2019-02-08T17:11:54.288Z,72.90
2019-02-08T17:14:23.986Z,72.90
2019-02-08T17:16:53.738Z,73.10
2019-02-08T17:19:23.510Z,74.20
2019-02-08T17:21:53.226Z,73.50
2019-02-08T17:24:22.973Z,73.50
2019-02-08T17:26:52.675Z,73.50
2019-02-08T17:29:22.751Z,73.50
2019-02-08T17:31:52.539Z,73.80
2019-02-08T17:34:22.274Z,74.00
2019-02-08T17:36:52.050Z,74.20
2019-02-08T17:39:21.843Z,74.60
2019-02-08T17:41:51.612Z,75.00
2019-02-08T17:44:21.347Z,75.30
2019-02-08T17:46:51.043Z,75.60
2019-02-08T17:49:20.742Z,75.80
2019-02-08T17:51:50.501Z,76.00
2019-02-08T17:54:25.600Z,76.30
2019-02-08T17:56:52.675Z,76.60
2019-02-08T17:59:22.424Z,77.00
2019-02-08T18:01:52.166Z,77.10
2019-02-08T18:04:21.845Z,77.20
2019-02-08T18:06:51.641Z,77.10
2019-02-08T18:09:21.420Z,77.10
2019-02-08T18:11:51.174Z,77.20
2019-02-08T18:14:20.991Z,77.30
2019-02-08T18:16:50.754Z,77.20
2019-02-08T18:19:20.539Z,76.80
2019-02-08T18:21:50.274Z,77.10
2019-02-08T18:24:20.025Z,77.10
2019-02-08T18:26:49.694Z,77.20
2019-02-08T18:29:19.451Z,77.20
2019-02-08T18:31:49.142Z,77.30
2019-02-08T18:34:18.908Z,77.30
2019-02-08T18:36:48.667Z,76.90
2019-02-08T18:39:18.432Z,77.50
2019-02-08T18:41:48.191Z,76.80
2019-02-08T18:44:17.874Z,77.10
2019-02-08T18:46:47.624Z,76.90
2019-02-08T18:49:17.399Z,76.90
2019-02-08T18:51:47.149Z,76.80
2019-02-08T18:54:16.825Z,76.80
2019-02-08T18:56:46.573Z,76.70
2019-02-08T18:59:16.274Z,76.50
2019-02-08T19:01:46.048Z,76.30
2019-02-08T19:04:15.729Z,76.10
2019-02-08T19:06:45.475Z,76.40
2019-02-08T19:09:16.217Z,76.50
2019-02-08T19:11:45.961Z,76.20
2019-02-08T19:14:16.698Z,75.90
2019-02-08T19:16:46.388Z,76.20
2019-02-08T19:19:16.122Z,76.60
2019-02-08T19:21:45.808Z,76.30
2019-02-08T19:24:15.639Z,76.30
2019-02-08T19:26:45.404Z,76.30
2019-02-08T19:29:15.087Z,76.20
2019-02-08T19:31:44.785Z,76.60
2019-02-08T19:34:14.534Z,76.60
2019-02-08T19:36:44.239Z,76.70
2019-02-08T19:39:13.945Z,76.80
2019-02-08T19:41:43.864Z,76.50
2019-02-08T19:44:13.581Z,76.00
2019-02-08T19:46:43.256Z,75.90
2019-02-08T19:49:12.957Z,75.80
2019-02-08T19:51:42.716Z,75.90
2019-02-08T19:54:12.421Z,76.10
2019-02-08T19:56:42.095Z,76.00
2019-02-08T19:59:11.801Z,75.90
2019-02-08T20:01:41.462Z,75.70
2019-02-08T20:04:11.153Z,75.60
2019-02-08T20:06:40.859Z,75.90
2019-02-08T20:09:10.614Z,76.10
2019-02-08T20:11:40.373Z,76.00
2019-02-08T20:14:10.047Z,76.00
2019-02-08T20:16:39.825Z,75.40
2019-02-08T20:19:10.487Z,75.10
2019-02-08T20:21:40.358Z,74.80
2019-02-08T20:24:10.135Z,74.90
2019-02-08T20:26:39.894Z,75.10
2019-02-08T20:29:09.660Z,75.10
2019-02-08T20:31:39.375Z,74.70
2019-02-08T20:34:09.134Z,74.40
2019-02-08T20:36:39.435Z,74.10
2019-02-08T20:39:09.514Z,74.10
2019-02-08T20:41:39.330Z,73.80
2019-02-08T20:44:09.109Z,73.70
2019-02-08T20:46:39.502Z,73.40
2019-02-08T20:49:09.420Z,73.40
2019-02-08T20:51:39.189Z,73.20
2019-02-08T20:54:09.288Z,73.40
2019-02-08T20:56:39.122Z,73.40
2019-02-08T20:59:08.936Z,73.30
2019-02-08T21:01:38.603Z,73.30
2019-02-08T21:04:08.524Z,73.30
2019-02-08T21:06:38.297Z,73.40
2019-02-08T21:09:11.253Z,73.40
2019-02-08T21:11:40.943Z,73.60
2019-02-08T21:14:10.626Z,73.30
2019-02-08T21:16:40.385Z,73.70
2019-02-08T21:19:10.052Z,73.70
2019-02-08T21:21:39.834Z,73.80
2019-02-08T21:24:09.565Z,74.00
2019-02-08T21:26:39.265Z,73.40
2019-02-08T21:29:09.152Z,73.40
2019-02-08T21:31:39.882Z,73.30
2019-02-08T21:34:10.868Z,73.10
2019-02-08T21:36:40.655Z,72.80
2019-02-08T21:39:10.408Z,72.90
2019-02-08T21:41:40.085Z,72.50
2019-02-08T21:44:09.837Z,73.10
2019-02-08T21:46:39.592Z,73.00
2019-02-08T21:49:09.347Z,72.10
2019-02-08T21:51:39.048Z,72.10
2019-02-08T21:54:08.849Z,72.00
2019-02-08T21:56:38.643Z,71.80
2019-02-08T21:59:08.396Z,71.70
2019-02-08T22:01:38.070Z,71.90
2019-02-08T22:04:07.759Z,72.00
2019-02-08T22:06:37.463Z,71.80
2019-02-08T22:09:07.571Z,72.20
2019-02-08T22:11:38.875Z,72.40
2019-02-08T22:14:08.557Z,72.80
2019-02-08T22:16:38.313Z,72.70
2019-02-08T22:19:08.085Z,72.10
2019-02-08T22:21:37.836Z,72.50
2019-02-08T22:24:07.545Z,72.50
2019-02-08T22:26:37.435Z,72.50
2019-02-08T22:29:13.973Z,72.50
2019-02-08T22:31:38.572Z,73.00
2019-02-08T22:34:08.344Z,73.60
2019-02-08T22:36:44.880Z,73.70
2019-02-08T22:39:14.592Z,73.70
2019-02-08T22:41:44.341Z,73.90
2019-02-08T22:44:14.009Z,73.70
2019-02-08T22:46:43.773Z,74.40
2019-02-08T22:49:13.534Z,73.70
2019-02-08T22:51:43.282Z,73.90
2019-02-08T22:54:12.950Z,74.00
2019-02-08T22:56:42.668Z,73.80
2019-02-08T22:59:12.433Z,73.50
2019-02-08T23:01:42.507Z,73.60
2019-02-08T23:04:12.226Z,74.10
2019-02-08T23:06:44.923Z,74.20
2019-02-08T23:09:18.643Z,74.20
2019-02-08T23:11:48.408Z,74.20
2019-02-08T23:14:18.104Z,74.20
2019-02-08T23:16:47.771Z,74.10
2019-02-08T23:19:17.643Z,74.40
2019-02-08T23:21:47.316Z,74.80
2019-02-08T23:24:17.023Z,75.00
2019-02-08T23:26:46.783Z,75.10
2019-02-08T23:29:16.519Z,75.00
2019-02-08T23:31:47.292Z,74.60
2019-02-08T23:34:17.058Z,74.40
2019-02-08T23:36:46.824Z,74.00
2019-02-08T23:39:16.526Z,73.90
2019-02-08T23:41:46.196Z,74.60
2019-02-08T23:44:15.971Z,73.80
2019-02-08T23:46:45.819Z,73.90
2019-02-08T23:49:15.589Z,73.70
2019-02-08T23:51:45.346Z,73.80
2019-02-08T23:54:15.029Z,73.70
2019-02-08T23:56:44.790Z,73.60
2019-02-08T23:59:14.478Z,73.60
